Terminal Aerodrome Forecast
Issued by NWS St Louis, MO

Home | Current Version | Previous Version | Text Only | Print | Product List | Glossary On
Versions: 1 2 3 4 5 6 7 8 9 10 11 12 13 14 15 16 17 18 19 20 21 22
000
FTUS43 KLSX 142300
TAFCOU
TAF
KCOU 142325Z 1500/1524 32014G22KT P6SM BKN040
     FM150100 32014KT P6SM SCT040
     FM150500 32007KT P6SM SKC
     FM151700 29005KT P6SM SCT050
     FM152200 24005KT P6SM SCT050=

USA.gov is the U.S. government's official web portal to all federal, state and local government web resources and services.